sensor_id;sensor_type;location;lat;lon;timestamp;temperature;humidity
50758;DHT22;36732;47.980;11.652;2024-01-15T00:01:55;2.10;63.20
50758;DHT22;36732;47.980;11.652;2024-01-15T00:04:21;2.20;63.30
50758;DHT22;36732;47.980;11.652;2024-01-15T00:06:47;2.20;63.30
50758;DHT22;36732;47.980;11.652;2024-01-15T00:09:13;2.20;63.40
50758;DHT22;36732;47.980;11.652;2024-01-15T00:11:38;2.20;63.50
50758;DHT22;36732;47.980;11.652;2024-01-15T00:14:04;2.20;63.60
50758;DHT22;36732;47.980;11.652;2024-01-15T00:16:30;2.20;63.60
50758;DHT22;36732;47.980;11.652;2024-01-15T00:18:55;2.30;63.70
50758;DHT22;36732;47.980;11.652;2024-01-15T00:21:21;2.20;63.80
50758;DHT22;36732;47.980;11.652;2024-01-15T00:23:47;2.30;63.80
50758;DHT22;36732;47.980;11.652;2024-01-15T00:26:13;2.30;63.80
50758;DHT22;36732;47.980;11.652;2024-01-15T00:28:38;2.30;63.90
50758;DHT22;36732;47.980;11.652;2024-01-15T00:31:04;2.30;63.90
50758;DHT22;36732;47.980;11.652;2024-01-15T00:33:30;2.30;64.00
50758;DHT22;36732;47.980;11.652;2024-01-15T00:35:56;2.30;64.10
50758;DHT22;36732;47.980;11.652;2024-01-15T00:38:22;2.30;64.10
50758;DHT22;36732;47.980;11.652;2024-01-15T00:40:48;2.40;64.20
50758;DHT22;36732;47.980;11.652;2024-01-15T00:43:14;2.40;64.10
50758;DHT22;36732;47.980;11.652;2024-01-15T00:45:40;2.40;64.00
50758;DHT22;36732;47.980;11.652;2024-01-15T00:48:06;2.40;64.00
50758;DHT22;36732;47.980;11.652;2024-01-15T00:50:32;2.40;64.00
50758;DHT22;36732;47.980;11.652;2024-01-15T00:52:58;2.40;64.00
50758;DHT22;36732;47.980;11.652;2024-01-15T00:55:24;2.40;64.00
50758;DHT22;36732;47.980;11.652;2024-01-15T00:57:49;2.40;64.10
50758;DHT22;36732;47.980;11.652;2024-01-15T01:00:16;2.40;64.00
50758;DHT22;36732;47.980;11.652;2024-01-15T01:02:41;2.40;64.00
50758;DHT22;36732;47.980;11.652;2024-01-15T01:05:07;2.40;64.00
50758;DHT22;36732;47.980;11.652;2024-01-15T01:07:33;2.40;64.00
50758;DHT22;36732;47.980;11.652;2024-01-15T01:09:58;2.40;64.00
50758;DHT22;36732;47.980;11.652;2024-01-15T01:12:24;2.40;64.00
50758;DHT22;36732;47.980;11.652;2024-01-15T01:14:53;2.50;64.00
50758;DHT22;36732;47.980;11.652;2024-01-15T01:17:18;2.50;64.00
50758;DHT22;36732;47.980;11.652;2024-01-15T01:19:44;2.50;64.00
50758;DHT22;36732;47.980;11.652;2024-01-15T01:22:10;2.50;64.00
50758;DHT22;36732;47.980;11.652;2024-01-15T01:24:35;2.40;63.90
50758;DHT22;36732;47.980;11.652;2024-01-15T01:27:01;2.50;64.00
50758;DHT22;36732;47.980;11.652;2024-01-15T01:29:27;2.50;64.10
50758;DHT22;36732;47.980;11.652;2024-01-15T01:31:53;2.50;64.10
50758;DHT22;36732;47.980;11.652;2024-01-15T01:34:18;2.50;64.10
50758;DHT22;36732;47.980;11.652;2024-01-15T01:36:44;2.50;64.20
50758;DHT22;36732;47.980;11.652;2024-01-15T01:39:10;2.50;64.30
50758;DHT22;36732;47.980;11.652;2024-01-15T01:41:36;2.50;64.30
50758;DHT22;36732;47.980;11.652;2024-01-15T01:44:01;2.50;64.40
50758;DHT22;36732;47.980;11.652;2024-01-15T01:46:27;2.50;64.40
50758;DHT22;36732;47.980;11.652;2024-01-15T01:48:55;2.50;64.50
50758;DHT22;36732;47.980;11.652;2024-01-15T01:51:23;2.50;65.20
50758;DHT22;36732;47.980;11.652;2024-01-15T01:53:50;2.50;64.50
50758;DHT22;36732;47.980;11.652;2024-01-15T01:56:17;2.50;64.50
50758;DHT22;36732;47.980;11.652;2024-01-15T01:58:44;2.50;64.50
50758;DHT22;36732;47.980;11.652;2024-01-15T02:01:11;2.50;64.50
50758;DHT22;36732;47.980;11.652;2024-01-15T02:03:39;2.50;64.50
50758;DHT22;36732;47.980;11.652;2024-01-15T02:06:06;2.50;64.40
50758;DHT22;36732;47.980;11.652;2024-01-15T02:08:32;2.50;64.40
50758;DHT22;36732;47.980;11.652;2024-01-15T02:10:57;2.50;64.40
50758;DHT22;36732;47.980;11.652;2024-01-15T02:13:23;2.50;64.40
50758;DHT22;36732;47.980;11.652;2024-01-15T02:15:49;2.50;64.40
50758;DHT22;36732;47.980;11.652;2024-01-15T02:18:14;2.50;64.30
50758;DHT22;36732;47.980;11.652;2024-01-15T02:20:40;2.50;64.30
50758;DHT22;36732;47.980;11.652;2024-01-15T02:23:09;2.50;64.30
50758;DHT22;36732;47.980;11.652;2024-01-15T02:25:38;2.50;64.20
50758;DHT22;36732;47.980;11.652;2024-01-15T02:28:09;2.50;64.10
50758;DHT22;36732;47.980;11.652;2024-01-15T02:30:41;2.50;64.10
50758;DHT22;36732;47.980;11.652;2024-01-15T02:33:07;2.50;64.10
50758;DHT22;36732;47.980;11.652;2024-01-15T02:35:34;2.50;63.90
50758;DHT22;36732;47.980;11.652;2024-01-15T02:38:04;2.50;63.90
50758;DHT22;36732;47.980;11.652;2024-01-15T02:40:30;2.50;63.80
50758;DHT22;36732;47.980;11.652;2024-01-15T02:42:56;2.50;63.70
50758;DHT22;36732;47.980;11.652;2024-01-15T02:45:22;2.50;63.70
50758;DHT22;36732;47.980;11.652;2024-01-15T02:47:48;2.40;63.50
50758;DHT22;36732;47.980;11.652;2024-01-15T02:50:14;2.50;63.50
50758;DHT22;36732;47.980;11.652;2024-01-15T02:52:41;2.50;63.50
50758;DHT22;36732;47.980;11.652;2024-01-15T02:55:07;2.50;63.40
50758;DHT22;36732;47.980;11.652;2024-01-15T02:57:33;2.50;63.20
50758;DHT22;36732;47.980;11.652;2024-01-15T02:59:58;2.50;63.10
50758;DHT22;36732;47.980;11.652;2024-01-15T03:02:24;2.50;63.00
50758;DHT22;36732;47.980;11.652;2024-01-15T03:04:50;2.40;62.90
50758;DHT22;36732;47.980;11.652;2024-01-15T03:07:16;2.50;62.90
50758;DHT22;36732;47.980;11.652;2024-01-15T03:09:41;2.50;62.80
50758;DHT22;36732;47.980;11.652;2024-01-15T03:12:07;2.50;62.70
50758;DHT22;36732;47.980;11.652;2024-01-15T03:14:33;2.50;62.70
50758;DHT22;36732;47.980;11.652;2024-01-15T03:16:59;2.50;62.70
50758;DHT22;36732;47.980;11.652;2024-01-15T03:19:26;2.50;62.70
50758;DHT22;36732;47.980;11.652;2024-01-15T03:21:52;2.40;62.60
50758;DHT22;36732;47.980;11.652;2024-01-15T03:24:17;2.50;62.60
50758;DHT22;36732;47.980;11.652;2024-01-15T03:26:43;2.50;62.60
50758;DHT22;36732;47.980;11.652;2024-01-15T03:29:09;2.40;62.50
50758;DHT22;36732;47.980;11.652;2024-01-15T03:31:34;2.50;62.50
50758;DHT22;36732;47.980;11.652;2024-01-15T03:34:00;2.50;62.40
50758;DHT22;36732;47.980;11.652;2024-01-15T03:36:26;2.40;62.30
50758;DHT22;36732;47.980;11.652;2024-01-15T03:38:51;2.50;62.30
50758;DHT22;36732;47.980;11.652;2024-01-15T03:41:17;2.50;62.20
50758;DHT22;36732;47.980;11.652;2024-01-15T03:43:43;2.50;62.20
50758;DHT22;36732;47.980;11.652;2024-01-15T03:46:09;2.40;62.10
50758;DHT22;36732;47.980;11.652;2024-01-15T03:48:34;2.50;62.20
50758;DHT22;36732;47.980;11.652;2024-01-15T03:51:00;2.50;62.00
50758;DHT22;36732;47.980;11.652;2024-01-15T03:53:26;2.40;62.00
50758;DHT22;36732;47.980;11.652;2024-01-15T03:55:52;2.40;61.90
50758;DHT22;36732;47.980;11.652;2024-01-15T03:58:17;2.50;61.90
50758;DHT22;36732;47.980;11.652;2024-01-15T04:00:43;2.40;61.90
50758;DHT22;36732;47.980;11.652;2024-01-15T04:03:09;2.40;61.80
50758;DHT22;36732;47.980;11.652;2024-01-15T04:05:35;2.40;61.80
50758;DHT22;36732;47.980;11.652;2024-01-15T04:08:01;2.40;61.80
50758;DHT22;36732;47.980;11.652;2024-01-15T04:10:27;2.40;61.70
50758;DHT22;36732;47.980;11.652;2024-01-15T04:12:52;2.50;61.80
50758;DHT22;36732;47.980;11.652;2024-01-15T04:15:18;2.40;61.70
50758;DHT22;36732;47.980;11.652;2024-01-15T04:17:44;2.40;61.60
50758;DHT22;36732;47.980;11.652;2024-01-15T04:20:10;2.50;61.70
50758;DHT22;36732;47.980;11.652;2024-01-15T04:22:36;2.50;61.70
50758;DHT22;36732;47.980;11.652;2024-01-15T04:25:02;2.40;61.50
50758;DHT22;36732;47.980;11.652;2024-01-15T04:27:29;2.50;61.60
50758;DHT22;36732;47.980;11.652;2024-01-15T04:29:55;2.50;61.60
50758;DHT22;36732;47.980;11.652;2024-01-15T04:32:20;2.50;61.60
50758;DHT22;36732;47.980;11.652;2024-01-15T04:34:46;2.50;61.50
50758;DHT22;36732;47.980;11.652;2024-01-15T04:37:13;2.50;61.50
50758;DHT22;36732;47.980;11.652;2024-01-15T04:39:39;2.50;61.50
50758;DHT22;36732;47.980;11.652;2024-01-15T04:42:05;2.50;61.40
50758;DHT22;36732;47.980;11.652;2024-01-15T04:44:31;2.50;61.30
50758;DHT22;36732;47.980;11.652;2024-01-15T04:46:56;2.50;61.30
50758;DHT22;36732;47.980;11.652;2024-01-15T04:49:22;2.50;61.20
50758;DHT22;36732;47.980;11.652;2024-01-15T04:51:48;2.50;61.10
50758;DHT22;36732;47.980;11.652;2024-01-15T04:54:13;2.50;61.20
50758;DHT22;36732;47.980;11.652;2024-01-15T04:56:43;2.50;61.20
50758;DHT22;36732;47.980;11.652;2024-01-15T04:59:10;2.50;61.10
50758;DHT22;36732;47.980;11.652;2024-01-15T05:01:36;2.50;61.20
50758;DHT22;36732;47.980;11.652;2024-01-15T05:04:01;2.50;61.10
50758;DHT22;36732;47.980;11.652;2024-01-15T05:06:28;2.50;61.00
50758;DHT22;36732;47.980;11.652;2024-01-15T05:08:53;2.50;61.10
50758;DHT22;36732;47.980;11.652;2024-01-15T05:11:19;2.50;61.00
50758;DHT22;36732;47.980;11.652;2024-01-15T05:13:45;2.50;61.70
50758;DHT22;36732;47.980;11.652;2024-01-15T05:16:11;2.50;61.00
50758;DHT22;36732;47.980;11.652;2024-01-15T05:18:36;2.50;61.00
50758;DHT22;36732;47.980;11.652;2024-01-15T05:21:03;2.50;60.90
50758;DHT22;36732;47.980;11.652;2024-01-15T05:23:30;2.50;60.90
50758;DHT22;36732;47.980;11.652;2024-01-15T05:25:56;2.50;60.90
50758;DHT22;36732;47.980;11.652;2024-01-15T05:28:22;2.50;60.90
50758;DHT22;36732;47.980;11.652;2024-01-15T05:30:48;2.50;60.90
50758;DHT22;36732;47.980;11.652;2024-01-15T05:33:16;2.50;60.90
50758;DHT22;36732;47.980;11.652;2024-01-15T05:35:42;2.50;60.90
50758;DHT22;36732;47.980;11.652;2024-01-15T05:38:08;2.50;60.80
50758;DHT22;36732;47.980;11.652;2024-01-15T05:40:34;2.50;60.90
50758;DHT22;36732;47.980;11.652;2024-01-15T05:42:59;2.50;60.80
50758;DHT22;36732;47.980;11.652;2024-01-15T05:45:29;2.60;60.90
50758;DHT22;36732;47.980;11.652;2024-01-15T05:47:55;2.50;60.90
50758;DHT22;36732;47.980;11.652;2024-01-15T05:50:21;2.60;60.90
50758;DHT22;36732;47.980;11.652;2024-01-15T05:52:48;2.60;60.90
50758;DHT22;36732;47.980;11.652;2024-01-15T05:55:13;2.60;60.90
50758;DHT22;36732;47.980;11.652;2024-01-15T05:57:39;2.60;60.80
50758;DHT22;36732;47.980;11.652;2024-01-15T06:00:05;2.60;60.80
50758;DHT22;36732;47.980;11.652;2024-01-15T06:02:31;2.60;60.80
50758;DHT22;36732;47.980;11.652;2024-01-15T06:04:57;2.60;60.80
50758;DHT22;36732;47.980;11.652;2024-01-15T06:07:23;2.60;61.30
50758;DHT22;36732;47.980;11.652;2024-01-15T06:09:49;2.60;60.70
50758;DHT22;36732;47.980;11.652;2024-01-15T06:12:15;2.60;60.60
50758;DHT22;36732;47.980;11.652;2024-01-15T06:14:40;2.60;60.50
50758;DHT22;36732;47.980;11.652;2024-01-15T06:17:08;2.60;60.60
50758;DHT22;36732;47.980;11.652;2024-01-15T06:19:33;2.60;60.50
50758;DHT22;36732;47.980;11.652;2024-01-15T06:21:59;2.60;60.50
50758;DHT22;36732;47.980;11.652;2024-01-15T06:24:25;2.60;60.50
50758;DHT22;36732;47.980;11.652;2024-01-15T06:26:50;2.60;60.60
50758;DHT22;36732;47.980;11.652;2024-01-15T06:29:16;2.60;60.60
50758;DHT22;36732;47.980;11.652;2024-01-15T06:31:42;2.60;60.50
50758;DHT22;36732;47.980;11.652;2024-01-15T06:34:08;2.60;60.50
50758;DHT22;36732;47.980;11.652;2024-01-15T06:36:33;2.60;60.40
50758;DHT22;36732;47.980;11.652;2024-01-15T06:38:59;2.60;60.40
50758;DHT22;36732;47.980;11.652;2024-01-15T06:41:25;2.60;60.40
50758;DHT22;36732;47.980;11.652;2024-01-15T06:43:51;2.60;60.40
50758;DHT22;36732;47.980;11.652;2024-01-15T06:46:23;2.60;60.40
50758;DHT22;36732;47.980;11.652;2024-01-15T06:48:49;2.60;60.30
50758;DHT22;36732;47.980;11.652;2024-01-15T06:51:15;2.60;60.30
50758;DHT22;36732;47.980;11.652;2024-01-15T06:53:41;2.60;60.30
50758;DHT22;36732;47.980;11.652;2024-01-15T06:56:07;2.60;60.30
50758;DHT22;36732;47.980;11.652;2024-01-15T06:58:33;2.60;60.40
50758;DHT22;36732;47.980;11.652;2024-01-15T07:00:59;2.60;60.30
50758;DHT22;36732;47.980;11.652;2024-01-15T07:03:25;2.60;60.40
50758;DHT22;36732;47.980;11.652;2024-01-15T07:05:51;2.60;60.40
50758;DHT22;36732;47.980;11.652;2024-01-15T07:08:16;2.60;60.30
50758;DHT22;36732;47.980;11.652;2024-01-15T07:10:42;2.60;60.30
50758;DHT22;36732;47.980;11.652;2024-01-15T07:13:08;2.60;60.30
50758;DHT22;36732;47.980;11.652;2024-01-15T07:15:34;2.60;60.40
50758;DHT22;36732;47.980;11.652;2024-01-15T07:18:00;2.70;60.40
50758;DHT22;36732;47.980;11.652;2024-01-15T07:20:26;2.70;60.40
50758;DHT22;36732;47.980;11.652;2024-01-15T07:22:51;2.60;60.40
50758;DHT22;36732;47.980;11.652;2024-01-15T07:25:17;2.70;60.40
50758;DHT22;36732;47.980;11.652;2024-01-15T07:27:42;2.70;60.50
50758;DHT22;36732;47.980;11.652;2024-01-15T07:30:11;2.60;60.40
50758;DHT22;36732;47.980;11.652;2024-01-15T07:32:37;2.70;60.50
50758;DHT22;36732;47.980;11.652;2024-01-15T07:35:03;2.70;60.60
50758;DHT22;36732;47.980;11.652;2024-01-15T07:37:29;2.70;60.60
50758;DHT22;36732;47.980;11.652;2024-01-15T07:39:55;2.70;60.60
50758;DHT22;36732;47.980;11.652;2024-01-15T07:42:21;2.70;60.60
50758;DHT22;36732;47.980;11.652;2024-01-15T07:44:47;2.70;60.60
50758;DHT22;36732;47.980;11.652;2024-01-15T07:47:12;2.70;60.70
50758;DHT22;36732;47.980;11.652;2024-01-15T07:49:38;2.70;60.70
50758;DHT22;36732;47.980;11.652;2024-01-15T07:52:04;2.70;60.80
50758;DHT22;36732;47.980;11.652;2024-01-15T07:54:31;2.70;61.00
50758;DHT22;36732;47.980;11.652;2024-01-15T07:57:01;2.70;60.80
50758;DHT22;36732;47.980;11.652;2024-01-15T07:59:29;2.70;60.90
50758;DHT22;36732;47.980;11.652;2024-01-15T08:01:54;2.70;60.90
50758;DHT22;36732;47.980;11.652;2024-01-15T08:04:20;2.70;60.90
50758;DHT22;36732;47.980;11.652;2024-01-15T08:06:47;2.70;61.00
50758;DHT22;36732;47.980;11.652;2024-01-15T08:09:13;2.70;61.00
50758;DHT22;36732;47.980;11.652;2024-01-15T08:11:44;2.70;61.00
50758;DHT22;36732;47.980;11.652;2024-01-15T08:14:11;2.70;61.10
50758;DHT22;36732;47.980;11.652;2024-01-15T08:16:37;2.70;61.10
50758;DHT22;36732;47.980;11.652;2024-01-15T08:19:03;2.70;61.10
50758;DHT22;36732;47.980;11.652;2024-01-15T08:21:29;2.70;61.20
50758;DHT22;36732;47.980;11.652;2024-01-15T08:23:56;2.70;61.20
50758;DHT22;36732;47.980;11.652;2024-01-15T08:26:22;2.70;61.30
50758;DHT22;36732;47.980;11.652;2024-01-15T08:28:48;2.70;61.30
50758;DHT22;36732;47.980;11.652;2024-01-15T08:31:14;2.70;62.00
50758;DHT22;36732;47.980;11.652;2024-01-15T08:33:39;2.70;61.40
50758;DHT22;36732;47.980;11.652;2024-01-15T08:36:05;2.70;61.40
50758;DHT22;36732;47.980;11.652;2024-01-15T08:38:31;2.70;61.50
50758;DHT22;36732;47.980;11.652;2024-01-15T08:40:57;2.80;61.60
50758;DHT22;36732;47.980;11.652;2024-01-15T08:43:24;2.80;61.60
50758;DHT22;36732;47.980;11.652;2024-01-15T08:45:50;2.80;61.70
50758;DHT22;36732;47.980;11.652;2024-01-15T08:48:16;2.80;61.70
50758;DHT22;36732;47.980;11.652;2024-01-15T08:50:42;2.80;61.70
50758;DHT22;36732;47.980;11.652;2024-01-15T08:53:07;2.80;61.80
50758;DHT22;36732;47.980;11.652;2024-01-15T08:55:33;2.80;61.70
50758;DHT22;36732;47.980;11.652;2024-01-15T08:57:59;2.80;61.80
50758;DHT22;36732;47.980;11.652;2024-01-15T09:00:25;2.80;61.90
50758;DHT22;36732;47.980;11.652;2024-01-15T09:02:50;2.80;61.90
50758;DHT22;36732;47.980;11.652;2024-01-15T09:05:16;2.80;61.90
50758;DHT22;36732;47.980;11.652;2024-01-15T09:07:42;2.80;62.00
50758;DHT22;36732;47.980;11.652;2024-01-15T09:10:08;2.80;62.00
50758;DHT22;36732;47.980;11.652;2024-01-15T09:12:34;2.80;62.10
50758;DHT22;36732;47.980;11.652;2024-01-15T09:14:59;2.80;62.10
50758;DHT22;36732;47.980;11.652;2024-01-15T09:17:25;2.80;62.10
50758;DHT22;36732;47.980;11.652;2024-01-15T09:19:53;2.80;62.10
50758;DHT22;36732;47.980;11.652;2024-01-15T09:22:19;2.80;62.10
50758;DHT22;36732;47.980;11.652;2024-01-15T09:24:45;2.80;62.10
50758;DHT22;36732;47.980;11.652;2024-01-15T09:27:11;2.80;62.10
50758;DHT22;36732;47.980;11.652;2024-01-15T09:29:37;2.80;62.10
50758;DHT22;36732;47.980;11.652;2024-01-15T09:32:05;2.90;62.10
50758;DHT22;36732;47.980;11.652;2024-01-15T09:34:33;2.90;62.10
50758;DHT22;36732;47.980;11.652;2024-01-15T09:36:59;2.90;62.10
50758;DHT22;36732;47.980;11.652;2024-01-15T09:39:28;2.90;62.10
50758;DHT22;36732;47.980;11.652;2024-01-15T09:41:54;2.90;62.00
50758;DHT22;36732;47.980;11.652;2024-01-15T09:44:21;2.90;62.00
50758;DHT22;36732;47.980;11.652;2024-01-15T09:46:47;2.90;61.90
50758;DHT22;36732;47.980;11.652;2024-01-15T09:49:16;2.90;61.90
50758;DHT22;36732;47.980;11.652;2024-01-15T09:51:42;2.90;61.90
50758;DHT22;36732;47.980;11.652;2024-01-15T09:54:08;2.90;61.90
50758;DHT22;36732;47.980;11.652;2024-01-15T09:56:34;2.90;61.90
50758;DHT22;36732;47.980;11.652;2024-01-15T09:59:01;2.90;61.80
50758;DHT22;36732;47.980;11.652;2024-01-15T10:01:27;2.90;61.70
50758;DHT22;36732;47.980;11.652;2024-01-15T10:03:54;3.00;61.70
50758;DHT22;36732;47.980;11.652;2024-01-15T10:06:21;2.90;61.60
50758;DHT22;36732;47.980;11.652;2024-01-15T10:08:51;2.90;61.60
50758;DHT22;36732;47.980;11.652;2024-01-15T10:11:17;3.00;61.60
50758;DHT22;36732;47.980;11.652;2024-01-15T10:13:44;3.00;61.60
50758;DHT22;36732;47.980;11.652;2024-01-15T10:16:10;3.00;62.30
50758;DHT22;36732;47.980;11.652;2024-01-15T10:18:36;3.00;61.70
50758;DHT22;36732;47.980;11.652;2024-01-15T10:21:03;3.00;61.60
50758;DHT22;36732;47.980;11.652;2024-01-15T10:23:30;3.00;61.50
50758;DHT22;36732;47.980;11.652;2024-01-15T10:25:57;3.00;61.60
50758;DHT22;36732;47.980;11.652;2024-01-15T10:28:26;3.00;61.60
50758;DHT22;36732;47.980;11.652;2024-01-15T10:30:55;3.00;61.60
50758;DHT22;36732;47.980;11.652;2024-01-15T10:33:22;3.00;61.60
50758;DHT22;36732;47.980;11.652;2024-01-15T10:35:53;3.00;61.60
50758;DHT22;36732;47.980;11.652;2024-01-15T10:38:21;3.00;61.60
50758;DHT22;36732;47.980;11.652;2024-01-15T10:40:50;3.10;61.50
50758;DHT22;36732;47.980;11.652;2024-01-15T10:43:16;3.10;61.50
50758;DHT22;36732;47.980;11.652;2024-01-15T10:45:50;3.10;61.50
50758;DHT22;36732;47.980;11.652;2024-01-15T10:48:18;3.00;61.40
50758;DHT22;36732;47.980;11.652;2024-01-15T10:50:47;3.10;61.60
50758;DHT22;36732;47.980;11.652;2024-01-15T10:53:15;3.10;61.60
50758;DHT22;36732;47.980;11.652;2024-01-15T10:55:42;3.10;61.60
50758;DHT22;36732;47.980;11.652;2024-01-15T10:58:09;3.10;61.60
50758;DHT22;36732;47.980;11.652;2024-01-15T11:00:35;3.10;61.70
50758;DHT22;36732;47.980;11.652;2024-01-15T11:03:06;3.10;61.70
50758;DHT22;36732;47.980;11.652;2024-01-15T11:05:45;3.10;61.70
50758;DHT22;36732;47.980;11.652;2024-01-15T11:08:11;3.10;61.80
50758;DHT22;36732;47.980;11.652;2024-01-15T11:10:45;3.10;61.80
50758;DHT22;36732;47.980;11.652;2024-01-15T11:13:22;3.10;61.90
50758;DHT22;36732;47.980;11.652;2024-01-15T11:18:22;3.20;62.10
50758;DHT22;36732;47.980;11.652;2024-01-15T11:23:46;3.20;62.30
50758;DHT22;36732;47.980;11.652;2024-01-15T11:34:21;3.20;62.20
50758;DHT22;36732;47.980;11.652;2024-01-15T11:37:25;3.20;62.10
50758;DHT22;36732;47.980;11.652;2024-01-15T11:39:53;3.20;62.10
50758;DHT22;36732;47.980;11.652;2024-01-15T11:42:21;3.20;62.20
50758;DHT22;36732;47.980;11.652;2024-01-15T11:44:49;3.20;62.20
50758;DHT22;36732;47.980;11.652;2024-01-15T11:47:15;3.30;62.30
50758;DHT22;36732;47.980;11.652;2024-01-15T11:49:59;3.30;62.20
50758;DHT22;36732;47.980;11.652;2024-01-15T11:52:38;3.30;62.40
50758;DHT22;36732;47.980;11.652;2024-01-15T11:55:21;3.30;62.40
50758;DHT22;36732;47.980;11.652;2024-01-15T11:57:53;3.30;62.40
50758;DHT22;36732;47.980;11.652;2024-01-15T12:00:21;3.30;62.20
50758;DHT22;36732;47.980;11.652;2024-01-15T12:02:48;3.30;62.20
50758;DHT22;36732;47.980;11.652;2024-01-15T12:05:16;3.30;62.20
50758;DHT22;36732;47.980;11.652;2024-01-15T12:07:43;3.30;62.20
50758;DHT22;36732;47.980;11.652;2024-01-15T12:10:15;3.30;62.30
50758;DHT22;36732;47.980;11.652;2024-01-15T12:12:57;3.30;62.30
50758;DHT22;36732;47.980;11.652;2024-01-15T12:15:26;3.30;62.40
50758;DHT22;36732;47.980;11.652;2024-01-15T12:17:55;3.30;62.30
50758;DHT22;36732;47.980;11.652;2024-01-15T12:20:23;3.30;62.30
50758;DHT22;36732;47.980;11.652;2024-01-15T12:22:49;3.30;62.20
50758;DHT22;36732;47.980;11.652;2024-01-15T12:25:15;3.30;62.30
50758;DHT22;36732;47.980;11.652;2024-01-15T12:27:41;3.30;62.30
50758;DHT22;36732;47.980;11.652;2024-01-15T12:30:09;3.30;62.30
50758;DHT22;36732;47.980;11.652;2024-01-15T12:32:36;3.40;62.30
50758;DHT22;36732;47.980;11.652;2024-01-15T12:35:02;3.40;62.30
50758;DHT22;36732;47.980;11.652;2024-01-15T12:37:29;3.40;62.40
50758;DHT22;36732;47.980;11.652;2024-01-15T12:39:55;3.40;62.40
50758;DHT22;36732;47.980;11.652;2024-01-15T12:42:21;3.40;62.40
50758;DHT22;36732;47.980;11.652;2024-01-15T12:44:47;3.40;62.40
50758;DHT22;36732;47.980;11.652;2024-01-15T12:47:13;3.40;62.40
50758;DHT22;36732;47.980;11.652;2024-01-15T12:49:40;3.40;62.40
50758;DHT22;36732;47.980;11.652;2024-01-15T12:52:09;3.40;62.40
50758;DHT22;36732;47.980;11.652;2024-01-15T12:54:35;3.40;62.40
50758;DHT22;36732;47.980;11.652;2024-01-15T12:57:01;3.40;62.40
50758;DHT22;36732;47.980;11.652;2024-01-15T12:59:26;3.40;62.40
50758;DHT22;36732;47.980;11.652;2024-01-15T13:01:52;3.40;62.40
50758;DHT22;36732;47.980;11.652;2024-01-15T13:04:22;3.40;62.40
50758;DHT22;36732;47.980;11.652;2024-01-15T13:06:52;3.40;62.50
50758;DHT22;36732;47.980;11.652;2024-01-15T13:09:18;3.40;62.40
50758;DHT22;36732;47.980;11.652;2024-01-15T13:11:47;3.40;62.50
50758;DHT22;36732;47.980;11.652;2024-01-15T13:14:13;3.40;62.60
50758;DHT22;36732;47.980;11.652;2024-01-15T13:16:42;3.40;62.60
50758;DHT22;36732;47.980;11.652;2024-01-15T13:19:09;3.40;62.70
50758;DHT22;36732;47.980;11.652;2024-01-15T13:21:37;3.40;62.60
50758;DHT22;36732;47.980;11.652;2024-01-15T13:24:03;3.50;62.70
50758;DHT22;36732;47.980;11.652;2024-01-15T13:26:33;3.50;62.70
50758;DHT22;36732;47.980;11.652;2024-01-15T13:29:03;3.50;62.70
50758;DHT22;36732;47.980;11.652;2024-01-15T13:31:30;3.50;62.80
50758;DHT22;36732;47.980;11.652;2024-01-15T13:33:56;3.50;63.40
50758;DHT22;36732;47.980;11.652;2024-01-15T13:36:23;3.50;63.30
50758;DHT22;36732;47.980;11.652;2024-01-15T13:38:50;3.50;62.70
50758;DHT22;36732;47.980;11.652;2024-01-15T13:41:17;3.50;62.70
50758;DHT22;36732;47.980;11.652;2024-01-15T13:43:55;3.50;62.70
50758;DHT22;36732;47.980;11.652;2024-01-15T13:46:24;3.50;62.70
50758;DHT22;36732;47.980;11.652;2024-01-15T13:48:52;3.50;62.70
50758;DHT22;36732;47.980;11.652;2024-01-15T13:51:18;3.50;62.60
50758;DHT22;36732;47.980;11.652;2024-01-15T13:53:43;3.50;62.50
50758;DHT22;36732;47.980;11.652;2024-01-15T13:56:09;3.50;62.50
50758;DHT22;36732;47.980;11.652;2024-01-15T13:58:36;3.50;62.50
50758;DHT22;36732;47.980;11.652;2024-01-15T14:01:03;3.50;62.60
50758;DHT22;36732;47.980;11.652;2024-01-15T14:03:31;3.50;62.50
50758;DHT22;36732;47.980;11.652;2024-01-15T14:05:57;3.50;62.50
50758;DHT22;36732;47.980;11.652;2024-01-15T14:08:23;3.50;62.50
50758;DHT22;36732;47.980;11.652;2024-01-15T14:10:49;3.50;62.50
50758;DHT22;36732;47.980;11.652;2024-01-15T14:13:15;3.50;62.50
50758;DHT22;36732;47.980;11.652;2024-01-15T14:15:41;3.50;62.50
50758;DHT22;36732;47.980;11.652;2024-01-15T14:18:06;3.50;62.50
50758;DHT22;36732;47.980;11.652;2024-01-15T14:20:32;3.50;62.50
50758;DHT22;36732;47.980;11.652;2024-01-15T14:22:58;3.50;62.40
50758;DHT22;36732;47.980;11.652;2024-01-15T14:25:24;3.60;62.50
50758;DHT22;36732;47.980;11.652;2024-01-15T14:27:50;3.60;62.40
50758;DHT22;36732;47.980;11.652;2024-01-15T14:30:16;3.50;62.30
50758;DHT22;36732;47.980;11.652;2024-01-15T14:32:44;3.50;62.30
50758;DHT22;36732;47.980;11.652;2024-01-15T14:35:10;3.50;62.20
50758;DHT22;36732;47.980;11.652;2024-01-15T14:37:37;3.50;62.10
50758;DHT22;36732;47.980;11.652;2024-01-15T14:40:04;3.50;62.10
50758;DHT22;36732;47.980;11.652;2024-01-15T14:42:33;3.50;62.10
50758;DHT22;36732;47.980;11.652;2024-01-15T14:44:59;3.50;62.10
50758;DHT22;36732;47.980;11.652;2024-01-15T14:47:25;3.50;62.10
50758;DHT22;36732;47.980;11.652;2024-01-15T14:49:52;3.50;62.10
50758;DHT22;36732;47.980;11.652;2024-01-15T14:52:18;3.50;62.10
50758;DHT22;36732;47.980;11.652;2024-01-15T14:54:43;3.50;62.10
50758;DHT22;36732;47.980;11.652;2024-01-15T14:57:09;3.50;62.10
50758;DHT22;36732;47.980;11.652;2024-01-15T14:59:35;3.50;62.10
50758;DHT22;36732;47.980;11.652;2024-01-15T15:02:00;3.50;62.10
50758;DHT22;36732;47.980;11.652;2024-01-15T15:04:26;3.50;62.10
50758;DHT22;36732;47.980;11.652;2024-01-15T15:06:53;3.50;62.10
50758;DHT22;36732;47.980;11.652;2024-01-15T15:09:19;3.50;62.10
50758;DHT22;36732;47.980;11.652;2024-01-15T15:11:45;3.50;62.10
50758;DHT22;36732;47.980;11.652;2024-01-15T15:14:10;3.50;62.10
50758;DHT22;36732;47.980;11.652;2024-01-15T15:16:36;3.50;62.10
50758;DHT22;36732;47.980;11.652;2024-01-15T15:19:02;3.50;62.10
50758;DHT22;36732;47.980;11.652;2024-01-15T15:21:27;3.50;62.10
50758;DHT22;36732;47.980;11.652;2024-01-15T15:23:54;3.50;62.10
50758;DHT22;36732;47.980;11.652;2024-01-15T15:26:20;3.50;62.10
50758;DHT22;36732;47.980;11.652;2024-01-15T15:28:46;3.50;62.10
50758;DHT22;36732;47.980;11.652;2024-01-15T15:31:12;3.50;62.10
50758;DHT22;36732;47.980;11.652;2024-01-15T15:33:37;3.50;62.10
50758;DHT22;36732;47.980;11.652;2024-01-15T15:36:04;3.50;62.10
50758;DHT22;36732;47.980;11.652;2024-01-15T15:38:33;3.50;62.10
50758;DHT22;36732;47.980;11.652;2024-01-15T15:41:00;3.50;62.10